sensor_id;sensor_type;location;lat;lon;timestamp;P1;durP1;ratioP1;P2;durP2;ratioP2
52268;SDS011;38224;50.950;4.100;2023-03-14T00:00:36;17.98;;;1.83;;
52268;SDS011;38224;50.950;4.100;2023-03-14T00:03:02;8.68;;;1.90;;
52268;SDS011;38224;50.950;4.100;2023-03-14T00:05:27;7.68;;;1.77;;
52268;SDS011;38224;50.950;4.100;2023-03-14T00:07:53;11.33;;;2.30;;
52268;SDS011;38224;50.950;4.100;2023-03-14T00:10:18;11.13;;;2.10;;
52268;SDS011;38224;50.950;4.100;2023-03-14T00:12:43;10.85;;;2.05;;
52268;SDS011;38224;50.950;4.100;2023-03-14T00:15:09;10.38;;;2.10;;
52268;SDS011;38224;50.950;4.100;2023-03-14T00:17:35;7.72;;;2.25;;
52268;SDS011;38224;50.950;4.100;2023-03-14T00:20:00;13.65;;;2.58;;
52268;SDS011;38224;50.950;4.100;2023-03-14T00:22:33;13.10;;;2.45;;
52268;SDS011;38224;50.950;4.100;2023-03-14T00:24:58;14.18;;;2.47;;
52268;SDS011;38224;50.950;4.100;2023-03-14T00:27:24;12.20;;;2.30;;
52268;SDS011;38224;50.950;4.100;2023-03-14T00:29:49;14.25;;;2.85;;
52268;SDS011;38224;50.950;4.100;2023-03-14T00:32:14;13.50;;;2.43;;
52268;SDS011;38224;50.950;4.100;2023-03-14T00:34:40;11.30;;;2.20;;
52268;SDS011;38224;50.950;4.100;2023-03-14T00:37:05;16.25;;;2.75;;
52268;SDS011;38224;50.950;4.100;2023-03-14T00:39:30;14.57;;;3.63;;
52268;SDS011;38224;50.950;4.100;2023-03-14T00:41:56;20.38;;;2.92;;
52268;SDS011;38224;50.950;4.100;2023-03-14T00:44:21;11.80;;;2.40;;
52268;SDS011;38224;50.950;4.100;2023-03-14T00:46:47;18.10;;;2.53;;
52268;SDS011;38224;50.950;4.100;2023-03-14T00:49:13;17.08;;;2.65;;
52268;SDS011;38224;50.950;4.100;2023-03-14T00:51:38;16.13;;;2.88;;
52268;SDS011;38224;50.950;4.100;2023-03-14T00:54:03;14.52;;;2.55;;
52268;SDS011;38224;50.950;4.100;2023-03-14T00:56:29;16.63;;;3.60;;
52268;SDS011;38224;50.950;4.100;2023-03-14T00:58:55;17.38;;;3.00;;
52268;SDS011;38224;50.950;4.100;2023-03-14T01:01:21;13.23;;;2.97;;
52268;SDS011;38224;50.950;4.100;2023-03-14T01:03:46;15.25;;;3.33;;
52268;SDS011;38224;50.950;4.100;2023-03-14T01:06:14;15.15;;;3.17;;
52268;SDS011;38224;50.950;4.100;2023-03-14T01:08:40;16.10;;;3.30;;
52268;SDS011;38224;50.950;4.100;2023-03-14T01:11:06;16.88;;;3.58;;
52268;SDS011;38224;50.950;4.100;2023-03-14T01:13:32;17.13;;;2.70;;
52268;SDS011;38224;50.950;4.100;2023-03-14T01:16:00;19.95;;;3.92;;
52268;SDS011;38224;50.950;4.100;2023-03-14T01:18:26;19.25;;;4.20;;
52268;SDS011;38224;50.950;4.100;2023-03-14T01:20:51;19.63;;;3.42;;
52268;SDS011;38224;50.950;4.100;2023-03-14T01:23:16;20.00;;;3.00;;
52268;SDS011;38224;50.950;4.100;2023-03-14T01:25:42;11.93;;;2.87;;
52268;SDS011;38224;50.950;4.100;2023-03-14T01:28:07;15.40;;;2.47;;
52268;SDS011;38224;50.950;4.100;2023-03-14T01:30:32;16.65;;;2.92;;
52268;SDS011;38224;50.950;4.100;2023-03-14T01:32:58;13.50;;;2.97;;
52268;SDS011;38224;50.950;4.100;2023-03-14T01:35:23;14.82;;;2.75;;
52268;SDS011;38224;50.950;4.100;2023-03-14T01:37:48;15.25;;;3.03;;
52268;SDS011;38224;50.950;4.100;2023-03-14T01:40:13;10.27;;;2.30;;
52268;SDS011;38224;50.950;4.100;2023-03-14T01:42:44;17.25;;;3.35;;
52268;SDS011;38224;50.950;4.100;2023-03-14T01:47:54;13.15;;;2.75;;
52268;SDS011;38224;50.950;4.100;2023-03-14T01:50:19;12.90;;;2.60;;
52268;SDS011;38224;50.950;4.100;2023-03-14T01:52:46;14.27;;;2.58;;
52268;SDS011;38224;50.950;4.100;2023-03-14T01:55:13;12.40;;;2.28;;
52268;SDS011;38224;50.950;4.100;2023-03-14T01:57:41;10.27;;;2.38;;
52268;SDS011;38224;50.950;4.100;2023-03-14T02:00:11;16.10;;;3.15;;
52268;SDS011;38224;50.950;4.100;2023-03-14T02:02:37;14.88;;;2.55;;
52268;SDS011;38224;50.950;4.100;2023-03-14T02:05:04;9.45;;;2.88;;
52268;SDS011;38224;50.950;4.100;2023-03-14T02:07:38;9.90;;;2.03;;
52268;SDS011;38224;50.950;4.100;2023-03-14T02:10:06;15.02;;;2.50;;
52268;SDS011;38224;50.950;4.100;2023-03-14T02:12:33;10.13;;;2.08;;
52268;SDS011;38224;50.950;4.100;2023-03-14T02:14:59;8.23;;;2.03;;
52268;SDS011;38224;50.950;4.100;2023-03-14T02:17:24;12.88;;;1.58;;
52268;SDS011;38224;50.950;4.100;2023-03-14T02:22:18;9.07;;;1.75;;
52268;SDS011;38224;50.950;4.100;2023-03-14T02:24:48;8.35;;;2.05;;
52268;SDS011;38224;50.950;4.100;2023-03-14T02:27:16;7.43;;;1.70;;
52268;SDS011;38224;50.950;4.100;2023-03-14T02:29:47;7.55;;;1.63;;
52268;SDS011;38224;50.950;4.100;2023-03-14T02:32:13;4.85;;;1.50;;
52268;SDS011;38224;50.950;4.100;2023-03-14T02:34:39;8.45;;;2.25;;
52268;SDS011;38224;50.950;4.100;2023-03-14T02:37:05;9.93;;;2.00;;
52268;SDS011;38224;50.950;4.100;2023-03-14T02:39:38;9.52;;;2.95;;
52268;SDS011;38224;50.950;4.100;2023-03-14T02:42:04;7.55;;;2.05;;
52268;SDS011;38224;50.950;4.100;2023-03-14T02:44:30;10.10;;;1.70;;
52268;SDS011;38224;50.950;4.100;2023-03-14T02:46:55;10.85;;;2.30;;
52268;SDS011;38224;50.950;4.100;2023-03-14T02:49:21;11.10;;;1.98;;
52268;SDS011;38224;50.950;4.100;2023-03-14T02:51:46;18.77;;;2.55;;
52268;SDS011;38224;50.950;4.100;2023-03-14T02:54:11;12.27;;;2.53;;
52268;SDS011;38224;50.950;4.100;2023-03-14T02:56:37;16.42;;;2.97;;
52268;SDS011;38224;50.950;4.100;2023-03-14T02:59:03;10.75;;;2.63;;
52268;SDS011;38224;50.950;4.100;2023-03-14T03:01:29;16.25;;;3.42;;
52268;SDS011;38224;50.950;4.100;2023-03-14T03:03:54;16.13;;;3.33;;
52268;SDS011;38224;50.950;4.100;2023-03-14T03:06:19;13.43;;;3.38;;
52268;SDS011;38224;50.950;4.100;2023-03-14T03:08:45;17.27;;;3.28;;
52268;SDS011;38224;50.950;4.100;2023-03-14T03:11:10;13.90;;;3.10;;
52268;SDS011;38224;50.950;4.100;2023-03-14T03:13:35;18.63;;;3.85;;
52268;SDS011;38224;50.950;4.100;2023-03-14T03:16:01;11.10;;;3.20;;
52268;SDS011;38224;50.950;4.100;2023-03-14T03:18:26;19.63;;;3.33;;
52268;SDS011;38224;50.950;4.100;2023-03-14T03:20:51;14.98;;;3.35;;
52268;SDS011;38224;50.950;4.100;2023-03-14T03:23:17;19.60;;;3.25;;
52268;SDS011;38224;50.950;4.100;2023-03-14T03:25:42;18.52;;;3.08;;
52268;SDS011;38224;50.950;4.100;2023-03-14T03:28:12;17.15;;;3.17;;
52268;SDS011;38224;50.950;4.100;2023-03-14T03:30:41;13.55;;;3.65;;
52268;SDS011;38224;50.950;4.100;2023-03-14T03:33:06;19.73;;;4.00;;
52268;SDS011;38224;50.950;4.100;2023-03-14T03:35:35;19.70;;;3.92;;
52268;SDS011;38224;50.950;4.100;2023-03-14T03:38:08;21.98;;;5.80;;
52268;SDS011;38224;50.950;4.100;2023-03-14T03:40:34;26.83;;;4.65;;
52268;SDS011;38224;50.950;4.100;2023-03-14T03:43:00;18.60;;;3.40;;
52268;SDS011;38224;50.950;4.100;2023-03-14T03:45:25;20.33;;;3.67;;
52268;SDS011;38224;50.950;4.100;2023-03-14T03:47:50;17.80;;;3.90;;
52268;SDS011;38224;50.950;4.100;2023-03-14T03:50:16;23.60;;;5.85;;
52268;SDS011;38224;50.950;4.100;2023-03-14T03:52:41;23.03;;;4.37;;
52268;SDS011;38224;50.950;4.100;2023-03-14T03:55:06;17.87;;;4.30;;
52268;SDS011;38224;50.950;4.100;2023-03-14T03:57:32;18.67;;;4.15;;
52268;SDS011;38224;50.950;4.100;2023-03-14T03:59:58;18.17;;;3.67;;
52268;SDS011;38224;50.950;4.100;2023-03-14T04:02:24;16.83;;;4.15;;
52268;SDS011;38224;50.950;4.100;2023-03-14T04:04:50;15.63;;;4.57;;
52268;SDS011;38224;50.950;4.100;2023-03-14T04:07:16;15.85;;;4.18;;
52268;SDS011;38224;50.950;4.100;2023-03-14T04:09:41;19.15;;;4.05;;
52268;SDS011;38224;50.950;4.100;2023-03-14T04:12:06;13.68;;;4.40;;
52268;SDS011;38224;50.950;4.100;2023-03-14T04:14:32;12.73;;;4.22;;
52268;SDS011;38224;50.950;4.100;2023-03-14T04:16:58;18.50;;;4.90;;
52268;SDS011;38224;50.950;4.100;2023-03-14T04:19:24;13.52;;;4.20;;
52268;SDS011;38224;50.950;4.100;2023-03-14T04:21:49;16.23;;;4.13;;
52268;SDS011;38224;50.950;4.100;2023-03-14T04:24:15;16.73;;;5.45;;
52268;SDS011;38224;50.950;4.100;2023-03-14T04:26:40;21.00;;;4.40;;
52268;SDS011;38224;50.950;4.100;2023-03-14T04:29:06;14.52;;;4.35;;
52268;SDS011;38224;50.950;4.100;2023-03-14T04:31:31;14.70;;;3.83;;
52268;SDS011;38224;50.950;4.100;2023-03-14T04:33:56;10.70;;;3.92;;
52268;SDS011;38224;50.950;4.100;2023-03-14T04:36:22;9.95;;;4.32;;
52268;SDS011;38224;50.950;4.100;2023-03-14T04:38:47;12.20;;;3.90;;
52268;SDS011;38224;50.950;4.100;2023-03-14T04:41:12;11.27;;;4.10;;
52268;SDS011;38224;50.950;4.100;2023-03-14T04:43:37;19.02;;;4.28;;
52268;SDS011;38224;50.950;4.100;2023-03-14T04:46:03;12.00;;;4.43;;
52268;SDS011;38224;50.950;4.100;2023-03-14T04:48:28;13.73;;;4.60;;
52268;SDS011;38224;50.950;4.100;2023-03-14T04:50:54;15.07;;;4.22;;
52268;SDS011;38224;50.950;4.100;2023-03-14T04:53:19;12.32;;;4.35;;
52268;SDS011;38224;50.950;4.100;2023-03-14T04:55:49;9.32;;;4.18;;
52268;SDS011;38224;50.950;4.100;2023-03-14T04:58:14;14.07;;;4.45;;
52268;SDS011;38224;50.950;4.100;2023-03-14T05:00:39;14.05;;;4.55;;
52268;SDS011;38224;50.950;4.100;2023-03-14T05:03:05;14.47;;;4.93;;
52268;SDS011;38224;50.950;4.100;2023-03-14T05:05:30;15.30;;;4.90;;
52268;SDS011;38224;50.950;4.100;2023-03-14T05:07:55;13.98;;;5.38;;
52268;SDS011;38224;50.950;4.100;2023-03-14T05:10:21;15.45;;;5.30;;
52268;SDS011;38224;50.950;4.100;2023-03-14T05:12:46;15.70;;;5.60;;
52268;SDS011;38224;50.950;4.100;2023-03-14T05:15:11;13.60;;;5.17;;
52268;SDS011;38224;50.950;4.100;2023-03-14T05:17:36;11.97;;;5.17;;
52268;SDS011;38224;50.950;4.100;2023-03-14T05:20:02;11.35;;;5.88;;
52268;SDS011;38224;50.950;4.100;2023-03-14T05:22:33;11.00;;;5.25;;
52268;SDS011;38224;50.950;4.100;2023-03-14T05:24:58;12.00;;;5.67;;
52268;SDS011;38224;50.950;4.100;2023-03-14T05:27:24;12.35;;;5.95;;
52268;SDS011;38224;50.950;4.100;2023-03-14T05:29:49;11.80;;;6.20;;
52268;SDS011;38224;50.950;4.100;2023-03-14T05:32:14;13.13;;;7.75;;
52268;SDS011;38224;50.950;4.100;2023-03-14T05:34:40;26.15;;;9.52;;
52268;SDS011;38224;50.950;4.100;2023-03-14T05:37:05;19.23;;;7.28;;
52268;SDS011;38224;50.950;4.100;2023-03-14T05:39:30;13.50;;;7.10;;
52268;SDS011;38224;50.950;4.100;2023-03-14T05:41:56;12.30;;;6.20;;
52268;SDS011;38224;50.950;4.100;2023-03-14T05:44:21;10.32;;;5.70;;
52268;SDS011;38224;50.950;4.100;2023-03-14T05:46:47;10.40;;;4.90;;
52268;SDS011;38224;50.950;4.100;2023-03-14T05:49:12;11.43;;;6.18;;
52268;SDS011;38224;50.950;4.100;2023-03-14T05:51:37;10.80;;;5.72;;
52268;SDS011;38224;50.950;4.100;2023-03-14T05:54:02;14.63;;;5.97;;
52268;SDS011;38224;50.950;4.100;2023-03-14T05:56:28;12.88;;;6.32;;
52268;SDS011;38224;50.950;4.100;2023-03-14T05:58:53;11.25;;;6.15;;
52268;SDS011;38224;50.950;4.100;2023-03-14T06:01:18;10.75;;;6.05;;
52268;SDS011;38224;50.950;4.100;2023-03-14T06:03:43;12.27;;;5.28;;
52268;SDS011;38224;50.950;4.100;2023-03-14T06:06:09;8.30;;;4.80;;
52268;SDS011;38224;50.950;4.100;2023-03-14T06:08:34;9.73;;;4.72;;
52268;SDS011;38224;50.950;4.100;2023-03-14T06:10:59;9.27;;;4.72;;
52268;SDS011;38224;50.950;4.100;2023-03-14T06:13:27;9.82;;;3.35;;
52268;SDS011;38224;50.950;4.100;2023-03-14T06:15:52;11.65;;;4.43;;
52268;SDS011;38224;50.950;4.100;2023-03-14T06:18:17;4.57;;;2.65;;
52268;SDS011;38224;50.950;4.100;2023-03-14T06:20:42;8.07;;;3.63;;
52268;SDS011;38224;50.950;4.100;2023-03-14T06:23:08;7.63;;;4.57;;
52268;SDS011;38224;50.950;4.100;2023-03-14T06:25:34;13.50;;;4.47;;
52268;SDS011;38224;50.950;4.100;2023-03-14T06:27:59;10.63;;;4.70;;
52268;SDS011;38224;50.950;4.100;2023-03-14T06:30:25;7.75;;;4.00;;
52268;SDS011;38224;50.950;4.100;2023-03-14T06:32:50;9.45;;;4.18;;
52268;SDS011;38224;50.950;4.100;2023-03-14T06:35:16;9.70;;;4.93;;
52268;SDS011;38224;50.950;4.100;2023-03-14T06:37:41;16.48;;;5.18;;
52268;SDS011;38224;50.950;4.100;2023-03-14T06:40:07;8.10;;;4.70;;
52268;SDS011;38224;50.950;4.100;2023-03-14T06:42:33;12.32;;;5.90;;
52268;SDS011;38224;50.950;4.100;2023-03-14T06:44:58;8.95;;;4.55;;
52268;SDS011;38224;50.950;4.100;2023-03-14T06:47:23;5.22;;;3.28;;
52268;SDS011;38224;50.950;4.100;2023-03-14T06:49:49;7.50;;;3.45;;
52268;SDS011;38224;50.950;4.100;2023-03-14T06:52:14;9.48;;;3.25;;
52268;SDS011;38224;50.950;4.100;2023-03-14T06:54:39;7.85;;;2.80;;
52268;SDS011;38224;50.950;4.100;2023-03-14T06:57:04;7.07;;;2.60;;
52268;SDS011;38224;50.950;4.100;2023-03-14T06:59:30;7.85;;;2.85;;
52268;SDS011;38224;50.950;4.100;2023-03-14T07:01:55;6.93;;;2.95;;
52268;SDS011;38224;50.950;4.100;2023-03-14T07:04:20;6.15;;;2.80;;
52268;SDS011;38224;50.950;4.100;2023-03-14T07:06:45;8.67;;;3.00;;
52268;SDS011;38224;50.950;4.100;2023-03-14T07:09:12;8.68;;;3.28;;
52268;SDS011;38224;50.950;4.100;2023-03-14T07:11:38;11.00;;;4.07;;
52268;SDS011;38224;50.950;4.100;2023-03-14T07:14:03;19.15;;;4.50;;
52268;SDS011;38224;50.950;4.100;2023-03-14T07:16:29;9.02;;;4.32;;
52268;SDS011;38224;50.950;4.100;2023-03-14T07:18:57;11.38;;;4.47;;
52268;SDS011;38224;50.950;4.100;2023-03-14T07:21:23;14.60;;;6.40;;
52268;SDS011;38224;50.950;4.100;2023-03-14T07:23:48;9.90;;;5.57;;
52268;SDS011;38224;50.950;4.100;2023-03-14T07:26:13;11.18;;;4.60;;
52268;SDS011;38224;50.950;4.100;2023-03-14T07:28:39;10.38;;;3.95;;
52268;SDS011;38224;50.950;4.100;2023-03-14T07:31:04;9.05;;;5.05;;
52268;SDS011;38224;50.950;4.100;2023-03-14T07:33:30;13.65;;;5.97;;
52268;SDS011;38224;50.950;4.100;2023-03-14T07:35:55;13.35;;;5.55;;
52268;SDS011;38224;50.950;4.100;2023-03-14T07:38:20;12.55;;;6.03;;
52268;SDS011;38224;50.950;4.100;2023-03-14T07:40:46;15.15;;;6.70;;
52268;SDS011;38224;50.950;4.100;2023-03-14T07:43:11;12.15;;;5.97;;
52268;SDS011;38224;50.950;4.100;2023-03-14T07:45:36;11.95;;;6.07;;
52268;SDS011;38224;50.950;4.100;2023-03-14T07:48:02;13.00;;;6.13;;
52268;SDS011;38224;50.950;4.100;2023-03-14T07:50:27;15.35;;;7.30;;
52268;SDS011;38224;50.950;4.100;2023-03-14T07:52:53;23.58;;;6.47;;
52268;SDS011;38224;50.950;4.100;2023-03-14T07:55:18;11.13;;;5.95;;
52268;SDS011;38224;50.950;4.100;2023-03-14T07:57:44;9.63;;;5.07;;
52268;SDS011;38224;50.950;4.100;2023-03-14T08:00:09;16.98;;;5.13;;
52268;SDS011;38224;50.950;4.100;2023-03-14T08:02:35;9.23;;;5.57;;
52268;SDS011;38224;50.950;4.100;2023-03-14T08:05:01;12.70;;;4.38;;
52268;SDS011;38224;50.950;4.100;2023-03-14T08:07:27;11.50;;;5.15;;
52268;SDS011;38224;50.950;4.100;2023-03-14T08:09:53;9.38;;;4.45;;
52268;SDS011;38224;50.950;4.100;2023-03-14T08:12:19;7.70;;;5.07;;
52268;SDS011;38224;50.950;4.100;2023-03-14T08:14:44;8.73;;;5.53;;
52268;SDS011;38224;50.950;4.100;2023-03-14T08:17:09;9.40;;;5.13;;
52268;SDS011;38224;50.950;4.100;2023-03-14T08:19:34;9.90;;;5.67;;
52268;SDS011;38224;50.950;4.100;2023-03-14T08:22:00;9.00;;;4.78;;
52268;SDS011;38224;50.950;4.100;2023-03-14T08:24:25;10.23;;;5.47;;
52268;SDS011;38224;50.950;4.100;2023-03-14T08:26:50;13.05;;;5.28;;
52268;SDS011;38224;50.950;4.100;2023-03-14T08:29:16;9.60;;;4.78;;
52268;SDS011;38224;50.950;4.100;2023-03-14T08:31:41;12.27;;;5.05;;
52268;SDS011;38224;50.950;4.100;2023-03-14T08:34:06;9.85;;;4.50;;
52268;SDS011;38224;50.950;4.100;2023-03-14T08:36:32;7.70;;;4.40;;
52268;SDS011;38224;50.950;4.100;2023-03-14T08:38:58;12.45;;;4.80;;
52268;SDS011;38224;50.950;4.100;2023-03-14T08:41:23;9.90;;;4.70;;
52268;SDS011;38224;50.950;4.100;2023-03-14T08:43:48;15.50;;;5.45;;
52268;SDS011;38224;50.950;4.100;2023-03-14T08:46:15;23.35;;;5.40;;
52268;SDS011;38224;50.950;4.100;2023-03-14T08:48:40;15.70;;;5.70;;
52268;SDS011;38224;50.950;4.100;2023-03-14T08:51:10;15.05;;;6.90;;
52268;SDS011;38224;50.950;4.100;2023-03-14T08:53:37;13.75;;;5.80;;
52268;SDS011;38224;50.950;4.100;2023-03-14T08:56:02;13.00;;;5.85;;
52268;SDS011;38224;50.950;4.100;2023-03-14T08:58:31;12.27;;;5.18;;
52268;SDS011;38224;50.950;4.100;2023-03-14T09:00:57;15.13;;;5.93;;
52268;SDS011;38224;50.950;4.100;2023-03-14T09:03:22;13.07;;;5.90;;
52268;SDS011;38224;50.950;4.100;2023-03-14T09:05:48;12.40;;;5.22;;
52268;SDS011;38224;50.950;4.100;2023-03-14T09:08:14;12.95;;;4.82;;
52268;SDS011;38224;50.950;4.100;2023-03-14T09:10:39;11.75;;;4.18;;
52268;SDS011;38224;50.950;4.100;2023-03-14T09:13:04;13.43;;;4.15;;
52268;SDS011;38224;50.950;4.100;2023-03-14T09:15:32;13.77;;;3.83;;
52268;SDS011;38224;50.950;4.100;2023-03-14T09:18:01;15.40;;;3.58;;
52268;SDS011;38224;50.950;4.100;2023-03-14T09:20:26;16.70;;;4.20;;
52268;SDS011;38224;50.950;4.100;2023-03-14T09:22:52;17.73;;;4.85;;
52268;SDS011;38224;50.950;4.100;2023-03-14T09:25:17;11.85;;;3.42;;
52268;SDS011;38224;50.950;4.100;2023-03-14T09:27:42;16.75;;;3.88;;
52268;SDS011;38224;50.950;4.100;2023-03-14T09:30:08;14.85;;;3.53;;
52268;SDS011;38224;50.950;4.100;2023-03-14T09:32:33;15.90;;;4.03;;
52268;SDS011;38224;50.950;4.100;2023-03-14T09:34:58;17.42;;;4.90;;
52268;SDS011;38224;50.950;4.100;2023-03-14T09:37:24;14.75;;;4.55;;
52268;SDS011;38224;50.950;4.100;2023-03-14T09:39:49;15.05;;;5.00;;
52268;SDS011;38224;50.950;4.100;2023-03-14T09:42:16;12.20;;;3.50;;
52268;SDS011;38224;50.950;4.100;2023-03-14T09:44:46;14.13;;;4.20;;
52268;SDS011;38224;50.950;4.100;2023-03-14T09:47:13;16.75;;;4.13;;
52268;SDS011;38224;50.950;4.100;2023-03-14T09:49:39;13.50;;;3.35;;
52268;SDS011;38224;50.950;4.100;2023-03-14T09:54:42;11.07;;;3.28;;
52268;SDS011;38224;50.950;4.100;2023-03-14T09:57:13;17.70;;;3.60;;
52268;SDS011;38224;50.950;4.100;2023-03-14T09:59:40;17.27;;;3.55;;
52268;SDS011;38224;50.950;4.100;2023-03-14T10:02:11;16.60;;;4.05;;
52268;SDS011;38224;50.950;4.100;2023-03-14T10:04:38;12.73;;;3.53;;
52268;SDS011;38224;50.950;4.100;2023-03-14T10:07:07;14.13;;;3.08;;
52268;SDS011;38224;50.950;4.100;2023-03-14T10:09:33;21.95;;;3.40;;
52268;SDS011;38224;50.950;4.100;2023-03-14T10:12:00;17.02;;;3.25;;
52268;SDS011;38224;50.950;4.100;2023-03-14T10:14:30;19.70;;;3.15;;
52268;SDS011;38224;50.950;4.100;2023-03-14T10:16:55;18.35;;;3.63;;
52268;SDS011;38224;50.950;4.100;2023-03-14T10:19:29;21.23;;;3.92;;
52268;SDS011;38224;50.950;4.100;2023-03-14T10:21:56;11.52;;;3.35;;
52268;SDS011;38224;50.950;4.100;2023-03-14T10:24:22;13.02;;;2.65;;
52268;SDS011;38224;50.950;4.100;2023-03-14T10:26:55;10.07;;;2.40;;
52268;SDS011;38224;50.950;4.100;2023-03-14T10:29:31;19.25;;;3.45;;
52268;SDS011;38224;50.950;4.100;2023-03-14T10:31:58;18.35;;;3.30;;
52268;SDS011;38224;50.950;4.100;2023-03-14T10:34:32;14.68;;;2.60;;
52268;SDS011;38224;50.950;4.100;2023-03-14T10:36:59;9.65;;;3.22;;
52268;SDS011;38224;50.950;4.100;2023-03-14T10:42:04;10.75;;;2.80;;
52268;SDS011;38224;50.950;4.100;2023-03-14T10:44:30;16.60;;;3.10;;
52268;SDS011;38224;50.950;4.100;2023-03-14T10:47:02;17.42;;;3.97;;
52268;SDS011;38224;50.950;4.100;2023-03-14T10:49:31;8.10;;;2.08;;
52268;SDS011;38224;50.950;4.100;2023-03-14T10:52:19;7.45;;;1.70;;
52268;SDS011;38224;50.950;4.100;2023-03-14T10:54:58;5.00;;;1.90;;
52268;SDS011;38224;50.950;4.100;2023-03-14T10:57:23;7.90;;;1.70;;
52268;SDS011;38224;50.950;4.100;2023-03-14T10:59:49;7.63;;;1.80;;
52268;SDS011;38224;50.950;4.100;2023-03-14T11:04:55;9.40;;;1.80;;
52268;SDS011;38224;50.950;4.100;2023-03-14T11:07:41;5.70;;;1.83;;
52268;SDS011;38224;50.950;4.100;2023-03-14T11:12:43;6.30;;;1.85;;
52268;SDS011;38224;50.950;4.100;2023-03-14T11:17:51;5.13;;;1.63;;
52268;SDS011;38224;50.950;4.100;2023-03-14T11:20:24;8.70;;;2.58;;
52268;SDS011;38224;50.950;4.100;2023-03-14T11:26:00;5.45;;;1.55;;
52268;SDS011;38224;50.950;4.100;2023-03-14T11:28:33;5.03;;;1.50;;
52268;SDS011;38224;50.950;4.100;2023-03-14T11:33:52;7.75;;;2.08;;
52268;SDS011;38224;50.950;4.100;2023-03-14T11:36:27;6.38;;;1.98;;
52268;SDS011;38224;50.950;4.100;2023-03-14T11:38:56;3.92;;;1.70;;
52268;SDS011;38224;50.950;4.100;2023-03-14T11:41:25;6.65;;;1.92;;
52268;SDS011;38224;50.950;4.100;2023-03-14T11:43:57;4.35;;;1.60;;
52268;SDS011;38224;50.950;4.100;2023-03-14T11:51:29;7.85;;;3.15;;
52268;SDS011;38224;50.950;4.100;2023-03-14T11:54:01;6.90;;;2.13;;
52268;SDS011;38224;50.950;4.100;2023-03-14T11:56:32;5.90;;;2.13;;
52268;SDS011;38224;50.950;4.100;2023-03-14T11:59:21;7.07;;;2.25;;
52268;SDS011;38224;50.950;4.100;2023-03-14T12:01:51;7.70;;;1.83;;
52268;SDS011;38224;50.950;4.100;2023-03-14T12:04:29;10.30;;;2.30;;
52268;SDS011;38224;50.950;4.100;2023-03-14T12:06:57;7.70;;;2.60;;
52268;SDS011;38224;50.950;4.100;2023-03-14T12:09:24;6.40;;;2.13;;
52268;SDS011;38224;50.950;4.100;2023-03-14T12:16:43;7.47;;;2.50;;
52268;SDS011;38224;50.950;4.100;2023-03-14T12:21:49;7.97;;;2.50;;
52268;SDS011;38224;50.950;4.100;2023-03-14T12:24:19;7.78;;;2.22;;
52268;SDS011;38224;50.950;4.100;2023-03-14T12:26:57;9.07;;;3.03;;
52268;SDS011;38224;50.950;4.100;2023-03-14T12:29:23;7.40;;;2.40;;
52268;SDS011;38224;50.950;4.100;2023-03-14T12:32:22;9.88;;;2.53;;
52268;SDS011;38224;50.950;4.100;2023-03-14T12:34:41;8.93;;;3.15;;
52268;SDS011;38224;50.950;4.100;2023-03-14T12:37:12;14.05;;;3.65;;
52268;SDS011;38224;50.950;4.100;2023-03-14T12:42:36;11.18;;;3.25;;
52268;SDS011;38224;50.950;4.100;2023-03-14T12:45:21;9.40;;;3.05;;
52268;SDS011;38224;50.950;4.100;2023-03-14T12:47:52;14.65;;;3.30;;
52268;SDS011;38224;50.950;4.100;2023-03-14T12:50:19;18.13;;;3.85;;
52268;SDS011;38224;50.950;4.100;2023-03-14T12:55:33;22.35;;;4.68;;
52268;SDS011;38224;50.950;4.100;2023-03-14T12:58:11;17.92;;;4.60;;
52268;SDS011;38224;50.950;4.100;2023-03-14T13:00:40;21.17;;;4.72;;
52268;SDS011;38224;50.950;4.100;2023-03-14T13:05:40;21.98;;;4.40;;
52268;SDS011;38224;50.950;4.100;2023-03-14T13:08:15;24.42;;;3.90;;
52268;SDS011;38224;50.950;4.100;2023-03-14T13:10:56;23.33;;;4.25;;
52268;SDS011;38224;50.950;4.100;2023-03-14T13:13:23;24.75;;;4.40;;
52268;SDS011;38224;50.950;4.100;2023-03-14T13:15:55;33.08;;;5.38;;
52268;SDS011;38224;50.950;4.100;2023-03-14T13:18:34;20.50;;;4.93;;
52268;SDS011;38224;50.950;4.100;2023-03-14T13:21:06;32.08;;;5.22;;
52268;SDS011;38224;50.950;4.100;2023-03-14T13:23:35;27.70;;;4.88;;
52268;SDS011;38224;50.950;4.100;2023-03-14T13:26:03;28.15;;;4.53;;
52268;SDS011;38224;50.950;4.100;2023-03-14T13:28:32;21.63;;;3.70;;
52268;SDS011;38224;50.950;4.100;2023-03-14T13:31:02;31.45;;;3.13;;
52268;SDS011;38224;50.950;4.100;2023-03-14T13:33:29;22.00;;;3.10;;
52268;SDS011;38224;50.950;4.100;2023-03-14T13:38:24;22.47;;;3.53;;
52268;SDS011;38224;50.950;4.100;2023-03-14T13:40:50;21.00;;;3.05;;
52268;SDS011;38224;50.950;4.100;2023-03-14T13:43:17;21.65;;;2.90;;
52268;SDS011;38224;50.950;4.100;2023-03-14T13:48:15;25.33;;;3.25;;
52268;SDS011;38224;50.950;4.100;2023-03-14T13:50:45;20.17;;;3.22;;
52268;SDS011;38224;50.950;4.100;2023-03-14T13:53:11;22.42;;;3.80;;
52268;SDS011;38224;50.950;4.100;2023-03-14T13:55:36;22.50;;;3.72;;
52268;SDS011;38224;50.950;4.100;2023-03-14T13:58:02;28.77;;;4.13;;
52268;SDS011;38224;50.950;4.100;2023-03-14T14:00:27;19.10;;;3.80;;
52268;SDS011;38224;50.950;4.100;2023-03-14T14:02:53;17.02;;;2.40;;
52268;SDS011;38224;50.950;4.100;2023-03-14T14:05:19;15.65;;;2.45;;
52268;SDS011;38224;50.950;4.100;2023-03-14T14:07:45;14.90;;;2.78;;
52268;SDS011;38224;50.950;4.100;2023-03-14T14:10:13;23.67;;;3.70;;
52268;SDS011;38224;50.950;4.100;2023-03-14T14:12:41;13.45;;;2.42;;
52268;SDS011;38224;50.950;4.100;2023-03-14T14:15:11;14.68;;;2.75;;
52268;SDS011;38224;50.950;4.100;2023-03-14T14:17:46;12.15;;;2.72;;
52268;SDS011;38224;50.950;4.100;2023-03-14T14:20:22;18.10;;;3.35;;
52268;SDS011;38224;50.950;4.100;2023-03-14T14:22:50;14.20;;;3.38;;
52268;SDS011;38224;50.950;4.100;2023-03-14T14:25:16;12.95;;;2.33;;
52268;SDS011;38224;50.950;4.100;2023-03-14T14:27:43;11.52;;;1.98;;
52268;SDS011;38224;50.950;4.100;2023-03-14T14:32:43;7.05;;;1.63;;
52268;SDS011;38224;50.950;4.100;2023-03-14T14:37:52;5.72;;;1.35;;
52268;SDS011;38224;50.950;4.100;2023-03-14T14:42:42;9.82;;;1.58;;
52268;SDS011;38224;50.950;4.100;2023-03-14T14:45:13;8.52;;;1.65;;
52268;SDS011;38224;50.950;4.100;2023-03-14T14:48:03;6.53;;;1.40;;
52268;SDS011;38224;50.950;4.100;2023-03-14T14:50:44;2.90;;;1.50;;
52268;SDS011;38224;50.950;4.100;2023-03-14T14:56:04;3.72;;;1.55;;
52268;SDS011;38224;50.950;4.100;2023-03-14T14:58:33;5.00;;;1.58;;
52268;SDS011;38224;50.950;4.100;2023-03-14T15:00:59;5.40;;;2.05;;
52268;SDS011;38224;50.950;4.100;2023-03-14T15:03:29;7.35;;;1.90;;
52268;SDS011;38224;50.950;4.100;2023-03-14T15:05:55;7.53;;;2.08;;
52268;SDS011;38224;50.950;4.100;2023-03-14T15:08:21;5.95;;;2.00;;
52268;SDS011;38224;50.950;4.100;2023-03-14T15:10:46;6.03;;;1.80;;
52268;SDS011;38224;50.950;4.100;2023-03-14T15:13:11;5.97;;;1.77;;
52268;SDS011;38224;50.950;4.100;2023-03-14T15:15:37;3.72;;;1.60;;
52268;SDS011;38224;50.950;4.100;2023-03-14T15:18:04;4.32;;;1.45;;
52268;SDS011;38224;50.950;4.100;2023-03-14T15:20:34;8.38;;;1.70;;
52268;SDS011;38224;50.950;4.100;2023-03-14T15:22:59;2.78;;;1.23;;
52268;SDS011;38224;50.950;4.100;2023-03-14T15:25:24;6.10;;;1.50;;
52268;SDS011;38224;50.950;4.100;2023-03-14T15:27:50;6.32;;;1.52;;
52268;SDS011;38224;50.950;4.100;2023-03-14T15:30:15;4.03;;;1.48;;
52268;SDS011;38224;50.950;4.100;2023-03-14T15:32:41;8.68;;;1.60;;
52268;SDS011;38224;50.950;4.100;2023-03-14T15:35:06;5.82;;;1.70;;
52268;SDS011;38224;50.950;4.100;2023-03-14T15:37:32;9.77;;;2.78;;